sensor_id;sensor_type;location;lat;lon;timestamp;pressure;altitude;pressure_sealevel;temperature;humidity
56504;BME280;48812;51.606;-0.114;2023-04-26T00:00:29;101326.38;;;16.95;56.56
56504;BME280;48812;51.606;-0.114;2023-04-26T00:03:02;101335.38;;;16.93;56.66
56504;BME280;48812;51.606;-0.114;2023-04-26T00:05:35;101333.56;;;16.93;56.75
56504;BME280;48812;51.606;-0.114;2023-04-26T00:08:09;101333.63;;;16.92;56.60
56504;BME280;48812;51.606;-0.114;2023-04-26T00:10:41;101336.34;;;16.90;56.92
56504;BME280;48812;51.606;-0.114;2023-04-26T00:13:13;101323.91;;;16.89;57.02
56504;BME280;48812;51.606;-0.114;2023-04-26T00:15:45;101312.38;;;16.89;56.67
56504;BME280;48812;51.606;-0.114;2023-04-26T00:18:17;101319.50;;;16.88;56.45
56504;BME280;48812;51.606;-0.114;2023-04-26T00:20:51;101313.38;;;16.86;56.68
56504;BME280;48812;51.606;-0.114;2023-04-26T00:23:23;101311.59;;;16.85;56.69
56504;BME280;48812;51.606;-0.114;2023-04-26T00:25:55;101307.19;;;16.84;56.59
56504;BME280;48812;51.606;-0.114;2023-04-26T00:28:28;101310.81;;;16.83;56.61
56504;BME280;48812;51.606;-0.114;2023-04-26T00:31:00;101299.22;;;16.83;56.63
56504;BME280;48812;51.606;-0.114;2023-04-26T00:33:32;101288.59;;;16.81;56.95
56504;BME280;48812;51.606;-0.114;2023-04-26T00:36:04;101292.22;;;16.80;57.05
56504;BME280;48812;51.606;-0.114;2023-04-26T00:38:37;101282.44;;;16.79;56.45
56504;BME280;48812;51.606;-0.114;2023-04-26T00:41:09;101282.50;;;16.77;56.53
56504;BME280;48812;51.606;-0.114;2023-04-26T00:43:41;101279.88;;;16.76;56.37
56504;BME280;48812;51.606;-0.114;2023-04-26T00:46:14;101290.56;;;16.76;56.59
56504;BME280;48812;51.606;-0.114;2023-04-26T00:48:48;101287.09;;;16.74;56.82
56504;BME280;48812;51.606;-0.114;2023-04-26T00:51:21;101288.00;;;16.73;56.74
56504;BME280;48812;51.606;-0.114;2023-04-26T00:53:55;101287.13;;;16.72;57.04
56504;BME280;48812;51.606;-0.114;2023-04-26T00:56:27;101294.28;;;16.72;57.04
56504;BME280;48812;51.606;-0.114;2023-04-26T00:59:00;101288.13;;;16.70;56.68
56504;BME280;48812;51.606;-0.114;2023-04-26T01:01:33;101288.19;;;16.68;56.70
56504;BME280;48812;51.606;-0.114;2023-04-26T01:04:06;101281.94;;;16.68;56.98
56504;BME280;48812;51.606;-0.114;2023-04-26T01:06:40;101287.28;;;16.68;56.71
56504;BME280;48812;51.606;-0.114;2023-04-26T01:09:12;101294.50;;;16.66;56.40
56504;BME280;48812;51.606;-0.114;2023-04-26T01:11:47;101282.06;;;16.65;56.54
56504;BME280;48812;51.606;-0.114;2023-04-26T01:14:19;101286.59;;;16.63;57.02
56504;BME280;48812;51.606;-0.114;2023-04-26T01:16:52;101282.19;;;16.62;56.71
56504;BME280;48812;51.606;-0.114;2023-04-26T01:19:25;101283.09;;;16.61;57.06
56504;BME280;48812;51.606;-0.114;2023-04-26T01:21:57;101273.34;;;16.59;56.70
56504;BME280;48812;51.606;-0.114;2023-04-26T01:24:29;101275.16;;;16.59;56.97
56504;BME280;48812;51.606;-0.114;2023-04-26T01:27:02;101275.19;;;16.57;56.98
56504;BME280;48812;51.606;-0.114;2023-04-26T01:29:35;101262.78;;;16.56;57.07
56504;BME280;48812;51.606;-0.114;2023-04-26T01:32:08;101254.84;;;16.55;56.66
56504;BME280;48812;51.606;-0.114;2023-04-26T01:34:41;101264.63;;;16.54;57.05
56504;BME280;48812;51.606;-0.114;2023-04-26T01:37:14;101256.66;;;16.53;56.39
56504;BME280;48812;51.606;-0.114;2023-04-26T01:39:46;101259.41;;;16.51;56.67
56504;BME280;48812;51.606;-0.114;2023-04-26T01:42:22;101249.66;;;16.50;56.41
56504;BME280;48812;51.606;-0.114;2023-04-26T01:44:55;101255.06;;;16.49;56.61
56504;BME280;48812;51.606;-0.114;2023-04-26T01:47:27;101248.81;;;16.48;56.70
56504;BME280;48812;51.606;-0.114;2023-04-26T01:49:59;101251.56;;;16.47;56.55
56504;BME280;48812;51.606;-0.114;2023-04-26T01:52:31;101248.06;;;16.45;56.63
56504;BME280;48812;51.606;-0.114;2023-04-26T01:55:04;101247.19;;;16.44;56.67
56504;BME280;48812;51.606;-0.114;2023-04-26T01:57:36;101250.78;;;16.43;56.68
56504;BME280;48812;51.606;-0.114;2023-04-26T02:00:08;101255.25;;;16.43;56.85
56504;BME280;48812;51.606;-0.114;2023-04-26T02:02:47;101257.97;;;16.41;56.59
56504;BME280;48812;51.606;-0.114;2023-04-26T02:05:20;101256.22;;;16.40;57.09
56504;BME280;48812;51.606;-0.114;2023-04-26T02:07:52;101265.19;;;16.39;56.73
56504;BME280;48812;51.606;-0.114;2023-04-26T02:10:25;101258.09;;;16.38;56.73
56504;BME280;48812;51.606;-0.114;2023-04-26T02:12:58;101250.13;;;16.36;56.72
56504;BME280;48812;51.606;-0.114;2023-04-26T02:15:30;101254.59;;;16.36;56.68
56504;BME280;48812;51.606;-0.114;2023-04-26T02:18:02;101255.50;;;16.35;56.67
56504;BME280;48812;51.606;-0.114;2023-04-26T02:20:36;101252.03;;;16.33;56.56
56504;BME280;48812;51.606;-0.114;2023-04-26T02:23:09;101257.38;;;16.33;56.52
56504;BME280;48812;51.606;-0.114;2023-04-26T02:25:42;101259.22;;;16.31;56.69
56504;BME280;48812;51.606;-0.114;2023-04-26T02:28:16;101250.41;;;16.29;56.69
56504;BME280;48812;51.606;-0.114;2023-04-26T02:30:51;101259.28;;;16.29;56.75
56504;BME280;48812;51.606;-0.114;2023-04-26T02:33:23;101261.13;;;16.27;56.64
56504;BME280;48812;51.606;-0.114;2023-04-26T02:35:55;101256.72;;;16.26;56.57
56504;BME280;48812;51.606;-0.114;2023-04-26T02:38:27;101251.44;;;16.25;56.65
56504;BME280;48812;51.606;-0.114;2023-04-26T02:41:01;101243.44;;;16.25;56.63
56504;BME280;48812;51.606;-0.114;2023-04-26T02:43:34;101247.94;;;16.22;56.87
56504;BME280;48812;51.606;-0.114;2023-04-26T02:46:08;101239.94;;;16.22;56.76
56504;BME280;48812;51.606;-0.114;2023-04-26T02:48:40;101233.78;;;16.20;56.63
56504;BME280;48812;51.606;-0.114;2023-04-26T02:51:12;101241.81;;;16.20;56.47
56504;BME280;48812;51.606;-0.114;2023-04-26T02:53:45;101249.91;;;16.17;56.57
56504;BME280;48812;51.606;-0.114;2023-04-26T02:56:17;101255.25;;;16.17;56.57
56504;BME280;48812;51.606;-0.114;2023-04-26T02:58:50;101241.94;;;16.16;56.60
56504;BME280;48812;51.606;-0.114;2023-04-26T03:01:24;101241.06;;;16.15;56.78
56504;BME280;48812;51.606;-0.114;2023-04-26T03:03:58;101250.00;;;16.14;56.69
56504;BME280;48812;51.606;-0.114;2023-04-26T03:06:31;101243.81;;;16.14;56.59
56504;BME280;48812;51.606;-0.114;2023-04-26T03:09:04;101244.78;;;16.11;56.78
56504;BME280;48812;51.606;-0.114;2023-04-26T03:11:39;101248.34;;;16.10;56.81
56504;BME280;48812;51.606;-0.114;2023-04-26T03:14:11;101241.28;;;16.09;56.73
56504;BME280;48812;51.606;-0.114;2023-04-26T03:16:44;101230.63;;;16.09;56.72
56504;BME280;48812;51.606;-0.114;2023-04-26T03:19:16;101229.75;;;16.07;56.52
56504;BME280;48812;51.606;-0.114;2023-04-26T03:21:50;101226.22;;;16.07;56.63
56504;BME280;48812;51.606;-0.114;2023-04-26T03:24:23;101225.34;;;16.06;56.62
56504;BME280;48812;51.606;-0.114;2023-04-26T03:26:55;101228.06;;;16.04;56.72
56504;BME280;48812;51.606;-0.114;2023-04-26T03:29:27;101221.88;;;16.04;56.57
56504;BME280;48812;51.606;-0.114;2023-04-26T03:31:59;101220.13;;;16.03;56.44
56504;BME280;48812;51.606;-0.114;2023-04-26T03:34:32;101229.03;;;16.02;56.64
56504;BME280;48812;51.606;-0.114;2023-04-26T03:37:06;101212.22;;;16.00;56.56
56504;BME280;48812;51.606;-0.114;2023-04-26T03:39:40;101227.34;;;15.99;56.68
56504;BME280;48812;51.606;-0.114;2023-04-26T03:42:14;101230.94;;;15.98;56.43
56504;BME280;48812;51.606;-0.114;2023-04-26T03:44:46;101224.75;;;15.98;56.45
56504;BME280;48812;51.606;-0.114;2023-04-26T03:47:19;101222.13;;;15.96;56.62
56504;BME280;48812;51.606;-0.114;2023-04-26T03:49:52;101219.50;;;15.95;56.67
56504;BME280;48812;51.606;-0.114;2023-04-26T03:52:24;101219.50;;;15.95;56.73
56504;BME280;48812;51.606;-0.114;2023-04-26T03:54:57;101215.13;;;15.92;56.69
56504;BME280;48812;51.606;-0.114;2023-04-26T03:57:29;101208.94;;;15.92;56.40
56504;BME280;48812;51.606;-0.114;2023-04-26T04:00:04;101205.41;;;15.91;56.55
56504;BME280;48812;51.606;-0.114;2023-04-26T04:02:48;101212.59;;;15.89;56.68
56504;BME280;48812;51.606;-0.114;2023-04-26T04:05:27;101210.84;;;15.88;56.42
56504;BME280;48812;51.606;-0.114;2023-04-26T04:08:01;101199.31;;;15.88;56.61
56504;BME280;48812;51.606;-0.114;2023-04-26T04:10:35;101199.34;;;15.86;56.76
56504;BME280;48812;51.606;-0.114;2023-04-26T04:13:09;101194.94;;;15.85;56.69
56504;BME280;48812;51.606;-0.114;2023-04-26T04:15:41;101199.41;;;15.84;56.74
56504;BME280;48812;51.606;-0.114;2023-04-26T04:18:14;101197.66;;;15.83;56.54
56504;BME280;48812;51.606;-0.114;2023-04-26T04:20:47;101201.22;;;15.82;56.43
56504;BME280;48812;51.606;-0.114;2023-04-26T04:23:20;101199.50;;;15.81;56.51
56504;BME280;48812;51.606;-0.114;2023-04-26T04:25:54;101198.66;;;15.81;56.43
56504;BME280;48812;51.606;-0.114;2023-04-26T04:28:26;101185.38;;;15.79;56.57
56504;BME280;48812;51.606;-0.114;2023-04-26T04:31:00;101183.59;;;15.78;56.41
56504;BME280;48812;51.606;-0.114;2023-04-26T04:33:32;101187.19;;;15.77;56.67
56504;BME280;48812;51.606;-0.114;2023-04-26T04:36:06;101186.31;;;15.77;56.77
56504;BME280;48812;51.606;-0.114;2023-04-26T04:38:39;101189.91;;;15.76;56.50
56504;BME280;48812;51.606;-0.114;2023-04-26T04:41:13;101177.50;;;15.75;56.53
56504;BME280;48812;51.606;-0.114;2023-04-26T04:43:46;101179.38;;;15.73;56.49
56504;BME280;48812;51.606;-0.114;2023-04-26T04:46:18;101182.88;;;15.73;56.56
56504;BME280;48812;51.606;-0.114;2023-04-26T04:48:50;101180.28;;;15.72;56.51
56504;BME280;48812;51.606;-0.114;2023-04-26T04:51:26;101181.19;;;15.71;56.47
56504;BME280;48812;51.606;-0.114;2023-04-26T04:54:08;101194.56;;;15.69;56.67
56504;BME280;48812;51.606;-0.114;2023-04-26T04:56:41;101189.22;;;15.69;56.59
56504;BME280;48812;51.606;-0.114;2023-04-26T04:59:19;101184.84;;;15.68;56.79
56504;BME280;48812;51.606;-0.114;2023-04-26T05:01:52;101190.22;;;15.66;56.66
56504;BME280;48812;51.606;-0.114;2023-04-26T05:04:24;101190.22;;;15.66;56.55
56504;BME280;48812;51.606;-0.114;2023-04-26T05:06:57;101187.59;;;15.65;56.84
56504;BME280;48812;51.606;-0.114;2023-04-26T05:09:30;101184.94;;;15.65;56.66
56504;BME280;48812;51.606;-0.114;2023-04-26T05:12:03;101185.84;;;15.64;56.39
56504;BME280;48812;51.606;-0.114;2023-04-26T05:14:36;101192.13;;;15.63;56.84
56504;BME280;48812;51.606;-0.114;2023-04-26T05:17:09;101187.69;;;15.62;56.77
56504;BME280;48812;51.606;-0.114;2023-04-26T05:19:41;101192.16;;;15.61;56.52
56504;BME280;48812;51.606;-0.114;2023-04-26T05:22:13;101193.06;;;15.60;56.83
56504;BME280;48812;51.606;-0.114;2023-04-26T05:24:52;101184.22;;;15.60;56.69
56504;BME280;48812;51.606;-0.114;2023-04-26T05:27:26;101188.66;;;15.59;56.58
56504;BME280;48812;51.606;-0.114;2023-04-26T05:30:16;101189.56;;;15.60;56.46
56504;BME280;48812;51.606;-0.114;2023-04-26T05:32:51;101192.25;;;15.58;56.69
56504;BME280;48812;51.606;-0.114;2023-04-26T05:35:37;101196.69;;;15.58;56.46
56504;BME280;48812;51.606;-0.114;2023-04-26T05:38:10;101194.94;;;15.58;56.50
56504;BME280;48812;51.606;-0.114;2023-04-26T05:40:42;101200.31;;;15.57;56.69
56504;BME280;48812;51.606;-0.114;2023-04-26T05:43:15;101197.66;;;15.57;56.66
56504;BME280;48812;51.606;-0.114;2023-04-26T05:45:51;101200.31;;;15.57;56.54
56504;BME280;48812;51.606;-0.114;2023-04-26T05:48:24;101188.84;;;15.55;56.75
56504;BME280;48812;51.606;-0.114;2023-04-26T05:50:57;101188.78;;;15.56;56.91
56504;BME280;48812;51.606;-0.114;2023-04-26T05:53:30;101187.88;;;15.56;56.82
56504;BME280;48812;51.606;-0.114;2023-04-26T05:56:02;101194.03;;;15.58;56.66
56504;BME280;48812;51.606;-0.114;2023-04-26T05:58:35;101198.47;;;15.59;56.65
56504;BME280;48812;51.606;-0.114;2023-04-26T06:01:08;101193.06;;;15.60;56.92
56504;BME280;48812;51.606;-0.114;2023-04-26T06:03:40;101193.03;;;15.62;56.75
56504;BME280;48812;51.606;-0.114;2023-04-26T06:06:13;101191.19;;;15.64;56.87
56504;BME280;48812;51.606;-0.114;2023-04-26T06:08:46;101205.28;;;15.67;56.64
56504;BME280;48812;51.606;-0.114;2023-04-26T06:11:18;101204.31;;;15.70;56.61
56504;BME280;48812;51.606;-0.114;2023-04-26T06:13:52;101208.75;;;15.71;56.62
56504;BME280;48812;51.606;-0.114;2023-04-26T06:16:26;101215.69;;;15.75;56.79
56504;BME280;48812;51.606;-0.114;2023-04-26T06:19:00;101214.69;;;15.79;56.75
56504;BME280;48812;51.606;-0.114;2023-04-26T06:21:34;101219.91;;;15.82;56.89
56504;BME280;48812;51.606;-0.114;2023-04-26T06:24:08;101214.47;;;15.85;56.78
56504;BME280;48812;51.606;-0.114;2023-04-26T06:26:41;101208.13;;;15.90;56.92
56504;BME280;48812;51.606;-0.114;2023-04-26T06:29:13;101210.63;;;15.94;56.77
56504;BME280;48812;51.606;-0.114;2023-04-26T06:31:45;101206.06;;;15.98;56.89
56504;BME280;48812;51.606;-0.114;2023-04-26T06:34:21;101209.53;;;16.00;57.14
56504;BME280;48812;51.606;-0.114;2023-04-26T06:36:55;101208.53;;;16.04;56.86
56504;BME280;48812;51.606;-0.114;2023-04-26T06:39:29;101212.00;;;16.06;56.94
56504;BME280;48812;51.606;-0.114;2023-04-26T06:42:01;101211.94;;;16.09;56.79
56504;BME280;48812;51.606;-0.114;2023-04-26T06:44:52;101216.25;;;16.13;57.09
56504;BME280;48812;51.606;-0.114;2023-04-26T06:47:24;101215.28;;;16.16;56.93
56504;BME280;48812;51.606;-0.114;2023-04-26T06:49:59;101208.94;;;16.18;57.20
56504;BME280;48812;51.606;-0.114;2023-04-26T06:52:34;101206.22;;;16.20;56.96
56504;BME280;48812;51.606;-0.114;2023-04-26T06:55:07;101203.44;;;16.23;57.09
56504;BME280;48812;51.606;-0.114;2023-04-26T06:57:41;101205.16;;;16.26;57.49
56504;BME280;48812;51.606;-0.114;2023-04-26T07:00:13;101201.50;;;16.28;57.04
56504;BME280;48812;51.606;-0.114;2023-04-26T07:02:46;101198.78;;;16.30;57.16
56504;BME280;48812;51.606;-0.114;2023-04-26T07:05:19;101195.13;;;16.32;57.11
56504;BME280;48812;51.606;-0.114;2023-04-26T07:07:51;101204.81;;;16.35;56.91
56504;BME280;48812;51.606;-0.114;2023-04-26T07:10:25;101196.75;;;16.36;57.20
56504;BME280;48812;51.606;-0.114;2023-04-26T07:12:59;101202.00;;;16.39;57.04
56504;BME280;48812;51.606;-0.114;2023-04-26T07:15:31;101202.84;;;16.40;57.27
56504;BME280;48812;51.606;-0.114;2023-04-26T07:18:04;101208.09;;;16.43;57.01
56504;BME280;48812;51.606;-0.114;2023-04-26T07:20:36;101205.34;;;16.45;57.13
56504;BME280;48812;51.606;-0.114;2023-04-26T07:23:10;101199.06;;;16.47;56.95
56504;BME280;48812;51.606;-0.114;2023-04-26T07:25:44;101197.19;;;16.49;57.39
56504;BME280;48812;51.606;-0.114;2023-04-26T07:28:16;101201.56;;;16.52;57.10
56504;BME280;48812;51.606;-0.114;2023-04-26T07:30:48;101198.84;;;16.53;57.10
56504;BME280;48812;51.606;-0.114;2023-04-26T07:33:21;101188.91;;;16.57;57.47
56504;BME280;48812;51.606;-0.114;2023-04-26T07:35:54;101192.44;;;16.57;57.20
56504;BME280;48812;51.606;-0.114;2023-04-26T07:38:29;101186.13;;;16.60;57.15
56504;BME280;48812;51.606;-0.114;2023-04-26T07:41:03;101190.53;;;16.61;57.09
56504;BME280;48812;51.606;-0.114;2023-04-26T07:43:38;101188.69;;;16.63;57.26
56504;BME280;48812;51.606;-0.114;2023-04-26T07:46:11;101200.19;;;16.65;57.09
56504;BME280;48812;51.606;-0.114;2023-04-26T07:48:44;101194.78;;;16.67;56.98
56504;BME280;48812;51.606;-0.114;2023-04-26T07:51:16;101193.84;;;16.68;57.22
56504;BME280;48812;51.606;-0.114;2023-04-26T07:53:48;101198.28;;;16.69;57.07
56504;BME280;48812;51.606;-0.114;2023-04-26T07:56:22;101200.03;;;16.70;56.85
56504;BME280;48812;51.606;-0.114;2023-04-26T07:58:55;101203.50;;;16.72;57.25
56504;BME280;48812;51.606;-0.114;2023-04-26T08:01:27;101202.56;;;16.73;56.87
56504;BME280;48812;51.606;-0.114;2023-04-26T08:04:00;101202.56;;;16.73;56.98
56504;BME280;48812;51.606;-0.114;2023-04-26T08:06:33;101214.06;;;16.75;57.38
56504;BME280;48812;51.606;-0.114;2023-04-26T08:09:05;101204.25;;;16.75;56.91
56504;BME280;48812;51.606;-0.114;2023-04-26T08:11:37;101209.59;;;16.75;57.17
56504;BME280;48812;51.606;-0.114;2023-04-26T08:14:09;101210.44;;;16.76;57.03
56504;BME280;48812;51.606;-0.114;2023-04-26T08:16:42;101215.78;;;16.76;56.98
56504;BME280;48812;51.606;-0.114;2023-04-26T08:19:16;101221.13;;;16.76;56.79
56504;BME280;48812;51.606;-0.114;2023-04-26T08:21:48;101218.47;;;16.76;57.27
56504;BME280;48812;51.606;-0.114;2023-04-26T08:24:20;101220.28;;;16.75;56.72
56504;BME280;48812;51.606;-0.114;2023-04-26T08:26:53;101222.03;;;16.76;56.64
56504;BME280;48812;51.606;-0.114;2023-04-26T08:29:29;101211.34;;;16.76;56.74
56504;BME280;48812;51.606;-0.114;2023-04-26T08:32:01;101206.88;;;16.77;57.28
56504;BME280;48812;51.606;-0.114;2023-04-26T08:34:33;101204.19;;;16.77;56.90
56504;BME280;48812;51.606;-0.114;2023-04-26T08:37:06;101203.34;;;16.76;56.87
56504;BME280;48812;51.606;-0.114;2023-04-26T08:39:38;101201.53;;;16.77;56.84
56504;BME280;48812;51.606;-0.114;2023-04-26T08:42:14;101201.53;;;16.77;57.20
56504;BME280;48812;51.606;-0.114;2023-04-26T08:44:46;101204.13;;;16.78;56.67
56504;BME280;48812;51.606;-0.114;2023-04-26T08:47:27;101203.28;;;16.78;56.94
56504;BME280;48812;51.606;-0.114;2023-04-26T08:50:02;101203.28;;;16.78;56.86
56504;BME280;48812;51.606;-0.114;2023-04-26T08:52:36;101197.94;;;16.78;56.69
56504;BME280;48812;51.606;-0.114;2023-04-26T08:55:09;101199.66;;;16.79;56.87
56504;BME280;48812;51.606;-0.114;2023-04-26T08:57:44;101199.66;;;16.79;56.56
56504;BME280;48812;51.606;-0.114;2023-04-26T09:00:17;101208.63;;;16.78;57.12
56504;BME280;48812;51.606;-0.114;2023-04-26T09:02:51;101208.63;;;16.78;56.80
56504;BME280;48812;51.606;-0.114;2023-04-26T09:05:28;101209.53;;;16.77;56.81
56504;BME280;48812;51.606;-0.114;2023-04-26T09:08:00;101214.00;;;16.76;56.68
56504;BME280;48812;51.606;-0.114;2023-04-26T09:10:39;101208.72;;;16.75;56.38
56504;BME280;48812;51.606;-0.114;2023-04-26T09:13:11;101212.25;;;16.75;56.67
56504;BME280;48812;51.606;-0.114;2023-04-26T09:15:44;101204.31;;;16.74;56.68
56504;BME280;48812;51.606;-0.114;2023-04-26T09:18:22;101209.66;;;16.74;56.56
56504;BME280;48812;51.606;-0.114;2023-04-26T09:21:01;101210.56;;;16.73;56.94
56504;BME280;48812;51.606;-0.114;2023-04-26T09:23:34;101215.03;;;16.72;56.65
56504;BME280;48812;51.606;-0.114;2023-04-26T09:26:18;101217.75;;;16.71;56.78
56504;BME280;48812;51.606;-0.114;2023-04-26T09:29:09;101216.03;;;16.70;56.90
56504;BME280;48812;51.606;-0.114;2023-04-26T09:31:43;101215.16;;;16.69;56.99
56504;BME280;48812;51.606;-0.114;2023-04-26T09:34:20;101221.44;;;16.68;56.73
56504;BME280;48812;51.606;-0.114;2023-04-26T09:36:54;101228.56;;;16.68;56.75
56504;BME280;48812;51.606;-0.114;2023-04-26T09:39:35;101216.16;;;16.67;56.99
56504;BME280;48812;51.606;-0.114;2023-04-26T09:42:08;101214.41;;;16.66;56.69
56504;BME280;48812;51.606;-0.114;2023-04-26T09:44:42;101216.16;;;16.67;56.78
56504;BME280;48812;51.606;-0.114;2023-04-26T09:47:15;101215.25;;;16.66;56.92
56504;BME280;48812;51.606;-0.114;2023-04-26T09:49:49;101217.06;;;16.66;56.49
56504;BME280;48812;51.606;-0.114;2023-04-26T09:52:22;101211.78;;;16.64;57.03
56504;BME280;48812;51.606;-0.114;2023-04-26T09:54:55;101217.97;;;16.65;56.61
56504;BME280;48812;51.606;-0.114;2023-04-26T09:57:27;101217.97;;;16.65;56.64
56504;BME280;48812;51.606;-0.114;2023-04-26T10:00:01;101217.97;;;16.65;56.48
56504;BME280;48812;51.606;-0.114;2023-04-26T10:02:41;101221.59;;;16.64;56.49
56504;BME280;48812;51.606;-0.114;2023-04-26T10:05:16;101215.31;;;16.65;56.54
56504;BME280;48812;51.606;-0.114;2023-04-26T10:07:49;101216.16;;;16.67;56.64
56504;BME280;48812;51.606;-0.114;2023-04-26T10:10:22;101211.66;;;16.67;56.68
56504;BME280;48812;51.606;-0.114;2023-04-26T10:12:55;101212.53;;;16.68;56.67
56504;BME280;48812;51.606;-0.114;2023-04-26T10:15:28;101212.53;;;16.68;56.96
56504;BME280;48812;51.606;-0.114;2023-04-26T10:18:00;101216.03;;;16.70;56.84
56504;BME280;48812;51.606;-0.114;2023-04-26T10:20:35;101208.94;;;16.69;56.57
56504;BME280;48812;51.606;-0.114;2023-04-26T10:23:20;101201.84;;;16.68;56.45
56504;BME280;48812;51.606;-0.114;2023-04-26T10:25:53;101212.47;;;16.69;56.48
56504;BME280;48812;51.606;-0.114;2023-04-26T10:31:16;101219.63;;;16.69;56.52
56504;BME280;48812;51.606;-0.114;2023-04-26T10:34:16;101222.34;;;16.67;56.99
56504;BME280;48812;51.606;-0.114;2023-04-26T10:37:29;101212.59;;;16.66;56.43
56504;BME280;48812;51.606;-0.114;2023-04-26T10:39:35;101205.59;;;16.64;57.04
56504;BME280;48812;51.606;-0.114;2023-04-26T10:42:17;101212.78;;;16.62;56.60
56504;BME280;48812;51.606;-0.114;2023-04-26T10:44:56;101200.34;;;16.61;56.75
56504;BME280;48812;51.606;-0.114;2023-04-26T10:47:29;101197.72;;;16.59;56.30
56504;BME280;48812;51.606;-0.114;2023-04-26T10:50:09;101192.44;;;16.57;56.44
56504;BME280;48812;51.606;-0.114;2023-04-26T10:55:38;101191.75;;;16.52;56.42
56504;BME280;48812;51.606;-0.114;2023-04-26T10:58:27;101189.94;;;16.53;55.99
56504;BME280;48812;51.606;-0.114;2023-04-26T11:01:10;101194.41;;;16.52;55.92
56504;BME280;48812;51.606;-0.114;2023-04-26T11:04:00;101192.59;;;16.53;55.88
56504;BME280;48812;51.606;-0.114;2023-04-26T11:06:52;101183.69;;;16.54;56.46
56504;BME280;48812;51.606;-0.114;2023-04-26T11:09:38;101184.59;;;16.53;55.92
56504;BME280;48812;51.606;-0.114;2023-04-26T11:12:12;101179.25;;;16.53;55.79
56504;BME280;48812;51.606;-0.114;2023-04-26T11:14:44;101180.16;;;16.53;55.99
56504;BME280;48812;51.606;-0.114;2023-04-26T11:17:19;101182.81;;;16.53;55.79
56504;BME280;48812;51.606;-0.114;2023-04-26T11:19:52;101180.16;;;16.53;55.91
56504;BME280;48812;51.606;-0.114;2023-04-26T11:22:24;101176.53;;;16.54;56.19
56504;BME280;48812;51.606;-0.114;2023-04-26T11:24:56;101179.22;;;16.54;55.92
56504;BME280;48812;51.606;-0.114;2023-04-26T11:27:31;101181.81;;;16.56;55.79
56504;BME280;48812;51.606;-0.114;2023-04-26T11:30:03;101171.09;;;16.57;56.05
56504;BME280;48812;51.606;-0.114;2023-04-26T11:32:36;101169.22;;;16.59;55.76
56504;BME280;48812;51.606;-0.114;2023-04-26T11:35:08;101173.66;;;16.61;55.55
56504;BME280;48812;51.606;-0.114;2023-04-26T11:37:41;101170.94;;;16.62;56.19
56504;BME280;48812;51.606;-0.114;2023-04-26T11:40:14;101169.91;;;16.65;55.76
56504;BME280;48812;51.606;-0.114;2023-04-26T11:42:46;101169.91;;;16.65;55.27
56504;BME280;48812;51.606;-0.114;2023-04-26T11:45:19;101165.47;;;16.65;55.51
56504;BME280;48812;51.606;-0.114;2023-04-26T11:47:51;101166.28;;;16.67;55.50
56504;BME280;48812;51.606;-0.114;2023-04-26T11:50:23;101160.03;;;16.68;55.52
56504;BME280;48812;51.606;-0.114;2023-04-26T11:52:58;101167.97;;;16.70;55.21
56504;BME280;48812;51.606;-0.114;2023-04-26T11:55:32;101166.13;;;16.72;55.86
56504;BME280;48812;51.606;-0.114;2023-04-26T11:58:08;101162.50;;;16.73;55.70
56504;BME280;48812;51.606;-0.114;2023-04-26T12:00:53;101156.25;;;16.74;55.68
56504;BME280;48812;51.606;-0.114;2023-04-26T12:03:31;101158.00;;;16.75;55.10
56504;BME280;48812;51.606;-0.114;2023-04-26T12:06:09;101156.13;;;16.77;54.99
56504;BME280;48812;51.606;-0.114;2023-04-26T12:08:47;101153.47;;;16.77;55.16
56504;BME280;48812;51.606;-0.114;2023-04-26T12:11:20;101157.88;;;16.78;55.04
56504;BME280;48812;51.606;-0.114;2023-04-26T12:13:52;101165.75;;;16.81;55.22
56504;BME280;48812;51.606;-0.114;2023-04-26T12:16:25;101154.94;;;16.84;55.06
56504;BME280;48812;51.606;-0.114;2023-04-26T12:18:58;101156.66;;;16.87;54.98
56504;BME280;48812;51.606;-0.114;2023-04-26T12:21:38;101152.97;;;16.89;54.77
56504;BME280;48812;51.606;-0.114;2023-04-26T12:26:53;101157.34;;;16.92;55.11
56504;BME280;48812;51.606;-0.114;2023-04-26T12:29:25;101144.72;;;16.95;54.64
56504;BME280;48812;51.606;-0.114;2023-04-26T12:31:59;101157.09;;;16.98;54.61
56504;BME280;48812;51.606;-0.114;2023-04-26T12:34:32;101143.69;;;17.00;54.52
56504;BME280;48812;51.606;-0.114;2023-04-26T12:37:05;101134.72;;;17.01;54.55
56504;BME280;48812;51.606;-0.114;2023-04-26T12:39:37;101136.47;;;17.02;54.98
56504;BME280;48812;51.606;-0.114;2023-04-26T12:42:11;101141.81;;;17.02;54.46
56504;BME280;48812;51.606;-0.114;2023-04-26T12:44:43;101138.25;;;17.03;54.44
56504;BME280;48812;51.606;-0.114;2023-04-26T12:47:20;101138.25;;;17.03;54.46
56504;BME280;48812;51.606;-0.114;2023-04-26T12:49:52;101145.31;;;17.04;54.78
56504;BME280;48812;51.606;-0.114;2023-04-26T12:52:25;101141.72;;;17.05;54.22
56504;BME280;48812;51.606;-0.114;2023-04-26T12:54:59;101142.63;;;17.04;54.25
56504;BME280;48812;51.606;-0.114;2023-04-26T12:57:34;101147.97;;;17.04;54.33
56504;BME280;48812;51.606;-0.114;2023-04-26T13:00:08;101144.44;;;17.03;54.00
56504;BME280;48812;51.606;-0.114;2023-04-26T13:02:41;101143.59;;;17.03;54.44
56504;BME280;48812;51.606;-0.114;2023-04-26T13:05:20;101140.00;;;17.02;53.83
56504;BME280;48812;51.606;-0.114;2023-04-26T13:07:55;101136.47;;;17.02;54.26
56504;BME280;48812;51.606;-0.114;2023-04-26T13:10:29;101143.69;;;17.00;54.49
56504;BME280;48812;51.606;-0.114;2023-04-26T13:13:01;101131.25;;;16.99;53.74
56504;BME280;48812;51.606;-0.114;2023-04-26T13:15:34;101144.66;;;16.97;54.22
56504;BME280;48812;51.606;-0.114;2023-04-26T13:18:07;101137.59;;;16.96;54.04
56504;BME280;48812;51.606;-0.114;2023-04-26T13:20:40;101139.44;;;16.94;53.93
56504;BME280;48812;51.606;-0.114;2023-04-26T13:23:13;101143.06;;;16.93;53.86